Time;durP1;ratioP1;P1;durP2;ratioP2;P2;SDS_P1;SDS_P2;PMS_P1;PMS_P2;Temp;Humidity;BMP_temperature;BMP_pressure;BME280_temperature;BME280_humidity;BME280_pressure;Samples;Min_cycle;Max_cycle;Signal;HPM_P1;HPM_P2
2023/12/04 00:01:56;;;;;;;;;;;11.80;39.60;;;12.01;42.65;100738.38;5053879;28;19940;-35
2023/12/04 00:04:24;;;;;;;;;;;11.80;39.60;;;12.02;42.19;100735.16;5053775;28;19960;-35
2023/12/04 00:06:52;;;;;;;;;;;11.80;39.60;;;12.02;42.33;100730.13;5053600;28;19925;-35
2023/12/04 00:09:20;;;;;;;;;;;11.80;39.70;;;12.01;42.41;100728.31;5054354;28;19925;-35
2023/12/04 00:11:47;;;;;;;;;;;11.80;39.60;;;12.00;42.23;100726.56;5056191;28;20301;-35
2023/12/04 00:14:16;;;;;;;;;;;11.80;39.60;;;11.97;42.10;100711.09;5055214;28;20363;-35
2023/12/04 00:16:44;;;;;;;;;;;11.80;39.60;;;12.00;42.44;100716.50;5053097;28;19925;-35
2023/12/04 00:19:13;;;;;;;;;;;11.80;39.60;;;12.00;42.01;100696.41;5053539;28;19994;-35
2023/12/04 00:21:41;;;;;;;;;;;11.80;39.60;;;12.00;42.08;100691.41;5058928;28;20442;-35
2023/12/04 00:24:09;;;;;;;;;;;11.80;39.70;;;12.00;42.24;100695.53;5053178;28;19964;-35
2023/12/04 00:26:37;;;;;;;;;;;11.80;39.70;;;12.01;42.45;100702.34;5053379;28;19929;-35
2023/12/04 00:29:05;;;;;;;;;;;11.80;39.70;;;12.03;42.64;100695.88;5053196;28;19931;-35
2023/12/04 00:31:32;;;;;;;;;;;11.80;39.70;;;12.01;42.92;100693.16;5053937;28;20008;-35
2023/12/04 00:34:01;;;;;;;;;;;11.80;39.70;;;12.02;42.39;100692.47;5053534;28;19924;-35
2023/12/04 00:36:30;;;;;;;;;;;11.80;39.70;;;12.02;42.62;100689.06;5054257;28;20333;-35
2023/12/04 00:38:58;;;;;;;;;;;11.80;39.60;;;12.00;42.36;100688.88;5053679;28;19955;-34
2023/12/04 00:41:26;;;;;;;;;;;11.80;39.60;;;12.01;43.07;100687.28;5053608;28;19925;-35
2023/12/04 00:43:54;;;;;;;;;;;11.80;39.60;;;12.02;42.56;100679.91;5053197;28;19929;-35
2023/12/04 00:46:22;;;;;;;;;;;11.80;39.60;;;12.03;42.56;100683.31;5053040;28;19924;-35
2023/12/04 00:48:50;;;;;;;;;;;11.80;39.60;;;12.02;43.04;100682.41;5053116;28;19975;-35
2023/12/04 00:51:18;;;;;;;;;;;11.80;39.70;;;11.97;42.85;100675.94;5053093;28;20396;-35
2023/12/04 00:53:47;;;;;;;;;;;11.80;39.70;;;11.99;42.58;100664.47;5053125;28;20028;-35
2023/12/04 00:56:15;;;;;;;;;;;11.80;39.70;;;12.00;42.88;100666.28;5053069;28;20008;-35
2023/12/04 00:58:43;;;;;;;;;;;11.80;39.70;;;11.98;42.51;100657.66;5053060;28;19925;-35
2023/12/04 01:01:10;;;;;;;;;;;11.80;39.70;;;11.97;42.91;100650.81;5053133;28;19931;-35
2023/12/04 01:03:38;;;;;;;;;;;11.80;39.70;;;11.97;42.57;100655.84;5052646;28;19987;-35
2023/12/04 01:06:07;;;;;;;;;;;11.70;39.70;;;11.98;42.26;100654.25;5052887;28;19929;-35
2023/12/04 01:08:35;;;;;;;;;;;11.80;39.80;;;11.99;42.67;100653.53;5053517;28;19925;-34
2023/12/04 01:11:05;;;;;;;;;;;11.70;39.70;;;11.99;42.68;100649.41;5053878;28;19928;-34
2023/12/04 01:13:32;;;;;;;;;;;11.70;39.80;;;12.01;42.88;100642.09;5052751;28;19925;-35
2023/12/04 01:16:00;;;;;;;;;;;11.80;39.90;;;12.00;42.19;100641.19;5052686;28;19925;-34
2023/12/04 01:18:28;;;;;;;;;;;11.70;39.80;;;11.94;43.22;100620.34;5052948;28;20419;-35
2023/12/04 01:20:57;;;;;;;;;;;11.80;39.80;;;12.02;42.97;100634.72;5053499;28;19929;-35
2023/12/04 01:23:24;;;;;;;;;;;11.80;39.70;;;12.01;42.72;100632.91;5058492;28;19931;-35
2023/12/04 01:25:52;;;;;;;;;;;11.80;40.40;;;12.01;42.54;100627.88;5052691;28;20011;-35
2023/12/04 01:28:21;;;;;;;;;;;11.80;39.80;;;11.96;42.50;100613.88;5052795;28;19925;-35
2023/12/04 01:30:49;;;;;;;;;;;11.80;39.70;;;11.99;42.19;100624.31;5052334;28;19931;-35
2023/12/04 01:33:17;;;;;;;;;;;11.80;39.80;;;12.02;42.68;100624.66;5052453;28;20400;-35
2023/12/04 01:35:45;;;;;;;;;;;11.80;39.70;;;12.00;42.39;100608.53;5052915;28;19928;-35
2023/12/04 01:38:13;;;;;;;;;;;11.80;39.80;;;12.00;43.06;100616.06;5052252;28;20376;-35
2023/12/04 01:40:41;;;;;;;;;;;11.80;39.70;;;11.99;42.87;100614.25;5051839;28;19925;-34
2023/12/04 01:43:09;;;;;;;;;;;11.80;39.80;;;12.03;42.86;100611.41;5051672;28;20008;-35
2023/12/04 01:45:38;;;;;;;;;;;11.80;39.80;;;12.02;43.09;100608.69;5051613;28;19925;-35
2023/12/04 01:48:06;;;;;;;;;;;11.80;39.70;;;12.01;43.29;100617.84;5043381;28;20007;-34
2023/12/04 01:50:34;;;;;;;;;;;11.80;39.70;;;12.00;42.56;100606.03;5051534;28;19933;-34
2023/12/04 01:53:02;;;;;;;;;;;11.80;39.80;;;12.01;43.04;100602.78;5051580;28;19932;-35
2023/12/04 01:55:30;;;;;;;;;;;11.80;39.80;;;12.00;42.81;100592.56;5051626;28;19932;-35
2023/12/04 01:57:59;;;;;;;;;;;11.80;39.80;;;12.04;42.55;100603.16;5051340;28;20388;-35
2023/12/04 02:00:27;;;;;;;;;;;11.80;39.80;;;12.01;42.64;100592.72;5051624;28;20412;-35
2023/12/04 02:02:56;;;;;;;;;;;11.80;39.80;;;12.04;43.09;100598.16;5051166;28;20011;-35
2023/12/04 02:05:24;;;;;;;;;;;11.80;39.80;;;12.03;42.87;100585.38;5051625;28;19988;-35
2023/12/04 02:07:52;;;;;;;;;;;11.80;39.80;;;12.01;42.65;100587.69;5051403;28;19925;-35
2023/12/04 02:10:20;;;;;;;;;;;11.80;39.80;;;12.02;42.21;100579.47;5051507;28;19932;-35
2023/12/04 02:12:48;;;;;;;;;;;11.80;39.80;;;12.04;42.18;100579.66;5051109;28;19931;-35
2023/12/04 02:15:16;;;;;;;;;;;11.80;39.80;;;12.04;42.54;100575.53;5051274;28;19931;-35
2023/12/04 02:17:44;;;;;;;;;;;11.80;39.80;;;12.04;42.94;100578.06;5051383;28;19931;-35
2023/12/04 02:20:14;;;;;;;;;;;11.80;39.80;;;12.06;42.66;100585.78;5051528;28;20016;-35
2023/12/04 02:22:42;;;;;;;;;;;11.80;39.80;;;12.02;42.75;100579.47;5058439;28;19924;-35
2023/12/04 02:25:12;;;;;;;;;;;11.80;39.80;;;12.02;42.21;100584.50;5051742;28;19931;-35
2023/12/04 02:27:57;;;;;;;;;;;11.80;39.80;;;11.93;42.77;100563.28;5050970;28;19925;-35
2023/12/04 02:30:25;;;;;;;;;;;11.80;39.80;;;12.03;42.71;100576.25;5051449;28;20010;-35
2023/12/04 02:32:53;;;;;;;;;;;11.80;39.80;;;12.04;42.49;100568.00;5051101;28;19925;-35
2023/12/04 02:35:22;;;;;;;;;;;11.80;39.80;;;12.02;42.61;100559.38;5051080;28;20007;-35
2023/12/04 02:37:50;;;;;;;;;;;11.80;39.80;;;12.01;42.66;100549.16;5051110;28;20625;-35
2023/12/04 02:40:19;;;;;;;;;;;11.80;39.90;;;12.03;42.24;100541.09;5051050;28;19924;-35
2023/12/04 02:42:47;;;;;;;;;;;11.80;39.80;;;12.02;42.84;100539.28;5051094;28;20019;-35
2023/12/04 02:45:15;;;;;;;;;;;11.80;39.80;;;12.03;42.57;100536.06;5051081;28;20376;-35
2023/12/04 02:47:43;;;;;;;;;;;11.80;39.80;;;12.03;42.21;100531.03;5054915;28;20019;-35
2023/12/04 02:50:11;;;;;;;;;;;11.80;39.80;;;12.03;42.79;100530.16;5054735;28;19925;-35
2023/12/04 02:52:39;;;;;;;;;;;11.80;39.80;;;12.04;43.17;100522.81;5054695;28;20011;-36
2023/12/04 02:55:07;;;;;;;;;;;11.80;39.80;;;12.03;42.77;100515.97;5054230;28;19931;-35
2023/12/04 02:57:37;;;;;;;;;;;11.80;39.80;;;12.03;43.25;100515.06;5054705;28;20008;-36
2023/12/04 03:00:06;;;;;;;;;;;11.80;39.80;;;12.04;42.28;100517.78;5054539;28;19932;-35
2023/12/04 03:02:34;;;;;;;;;;;11.80;39.90;;;12.03;42.85;100515.97;5054537;28;19972;-35
2023/12/04 03:05:02;;;;;;;;;;;11.80;39.80;;;12.03;43.03;100510.94;5054257;28;19925;-35
2023/12/04 03:07:29;;;;;;;;;;;11.80;39.80;;;12.03;42.65;100505.94;5054233;28;19928;-35
2023/12/04 03:09:57;;;;;;;;;;;11.80;39.80;;;12.04;42.21;100506.84;5054210;28;20339;-35
2023/12/04 03:12:25;;;;;;;;;;;11.80;39.80;;;12.03;43.18;100500.91;5054210;28;20447;-35
2023/12/04 03:14:54;;;;;;;;;;;11.80;39.80;;;12.04;43.07;100500.19;5053945;28;19931;-35
2023/12/04 03:17:22;;;;;;;;;;;11.80;39.80;;;12.03;42.27;100495.88;5054363;28;19931;-35
2023/12/04 03:19:50;;;;;;;;;;;11.80;39.80;;;12.01;42.92;100497.31;5054066;28;19925;-35
2023/12/04 03:22:18;;;;;;;;;;;11.80;39.80;;;12.01;43.30;100491.41;5061445;28;20440;-36
2023/12/04 03:24:46;;;;;;;;;;;11.80;39.90;;;12.01;42.52;100491.41;5053885;28;19925;-36
2023/12/04 03:27:14;;;;;;;;;;;11.80;39.90;;;12.00;42.76;100482.97;5054172;28;19929;-35
2023/12/04 03:29:42;;;;;;;;;;;11.80;39.90;;;12.00;43.11;100485.50;5053897;28;19931;-35
2023/12/04 03:32:11;;;;;;;;;;;11.80;39.90;;;12.02;42.74;100484.03;5053772;28;19929;-35
2023/12/04 03:34:39;;;;;;;;;;;11.80;39.90;;;11.97;42.64;100475.06;5053534;28;19963;-36
2023/12/04 03:37:07;;;;;;;;;;;11.80;39.90;;;12.01;43.24;100477.22;5053903;28;19940;-35
2023/12/04 03:39:35;;;;;;;;;;;11.80;39.90;;;12.00;42.44;100470.44;5054124;28;20286;-35
2023/12/04 03:42:03;;;;;;;;;;;11.80;39.90;;;11.99;42.61;100462.69;5053679;28;19925;-35
2023/12/04 03:44:31;;;;;;;;;;;11.80;39.90;;;12.01;43.20;100462.16;5053597;28;20296;-35
2023/12/04 03:46:59;;;;;;;;;;;11.80;39.90;;;12.03;42.83;100455.72;5053637;28;19978;-35
2023/12/04 03:49:28;;;;;;;;;;;11.80;39.90;;;12.03;42.94;100455.72;5054724;28;20378;-35
2023/12/04 03:51:56;;;;;;;;;;;11.80;39.90;;;12.03;43.28;100460.72;5054856;28;19925;-35
2023/12/04 03:54:24;;;;;;;;;;;11.80;39.90;;;12.03;43.07;100454.81;5053965;28;20015;-35
2023/12/04 03:56:52;;;;;;;;;;;11.80;39.90;;;12.04;43.01;100452.50;5053470;28;19924;-35
2023/12/04 03:59:19;;;;;;;;;;;11.80;39.90;;;12.01;42.33;100452.09;5053541;28;19925;-35
2023/12/04 04:01:47;;;;;;;;;;;11.80;39.90;;;12.04;43.17;100444.97;5053141;28;19948;-35
2023/12/04 04:04:15;;;;;;;;;;;11.80;39.90;;;12.03;43.45;100445.66;5045364;28;20007;-35
2023/12/04 04:06:45;;;;;;;;;;;11.80;39.90;;;12.04;42.20;100437.44;5053543;28;20079;-35
2023/12/04 04:09:12;;;;;;;;;;;11.80;39.90;;;12.03;42.86;100435.63;5053007;28;19925;-35
2023/12/04 04:11:40;;;;;;;;;;;11.80;39.90;;;12.01;42.58;100432.00;5053198;28;20392;-35
2023/12/04 04:14:08;;;;;;;;;;;11.80;39.80;;;12.04;42.33;100417.34;5052711;28;19932;-35
2023/12/04 04:16:36;;;;;;;;;;;11.80;39.80;;;12.02;42.94;100418.75;5053229;28;20291;-35
2023/12/04 04:19:04;;;;;;;;;;;11.80;39.80;;;12.02;42.33;100416.25;5052939;28;19925;-35
2023/12/04 04:21:32;;;;;;;;;;;11.80;39.90;;;12.02;42.71;100413.72;5058719;28;19974;-35
2023/12/04 04:24:01;;;;;;;;;;;11.80;39.80;;;12.01;42.67;100421.97;5054659;28;19928;-35
2023/12/04 04:26:29;;;;;;;;;;;11.80;39.80;;;12.02;42.77;100418.75;5052989;28;19931;-35
2023/12/04 04:28:57;;;;;;;;;;;11.80;40.40;;;12.04;43.12;100416.44;5052589;28;19924;-34
2023/12/04 04:31:25;;;;;;;;;;;11.80;39.80;;;12.04;42.37;100419.84;5052706;28;20444;-35
2023/12/04 04:33:53;;;;;;;;;;;11.90;39.90;;;12.02;43.08;100408.72;5052161;28;20291;-35
2023/12/04 04:36:21;;;;;;;;;;;11.80;39.80;;;12.04;42.95;100412.31;5052963;28;19925;-35
2023/12/04 04:38:49;;;;;;;;;;;11.80;39.80;;;12.06;42.87;100415.91;5052630;28;19932;-35
2023/12/04 04:41:18;;;;;;;;;;;11.80;39.80;;;12.06;43.43;100410.91;5052294;28;19925;-35
2023/12/04 04:43:46;;;;;;;;;;;11.80;39.90;;;12.05;42.97;100404.06;5052464;28;19924;-35
2023/12/04 04:46:14;;;;;;;;;;;11.80;39.80;;;12.05;43.30;100406.59;5052460;28;19924;-35
2023/12/04 04:48:42;;;;;;;;;;;11.80;39.90;;;12.03;42.68;100400.47;5052425;28;19929;-35
2023/12/04 04:51:10;;;;;;;;;;;11.80;39.90;;;12.03;43.32;100400.47;5052050;28;19971;-35
2023/12/04 04:53:37;;;;;;;;;;;11.80;39.80;;;12.03;42.54;100400.47;5052208;28;19931;-35
2023/12/04 04:56:06;;;;;;;;;;;11.80;39.80;;;12.01;42.85;100388.47;5052254;28;20299;-34
2023/12/04 04:58:35;;;;;;;;;;;11.80;39.90;;;12.00;42.51;100395.09;5052455;28;19935;-35
2023/12/04 05:01:04;;;;;;;;;;;11.80;39.90;;;11.98;42.49;100385.56;5052122;28;19925;-35
2023/12/04 05:03:31;;;;;;;;;;;11.80;39.90;;;12.01;42.66;100386.81;5052029;28;19931;-35
2023/12/04 05:05:59;;;;;;;;;;;11.80;39.90;;;12.02;42.65;100388.63;5052551;28;20011;-35
2023/12/04 05:08:27;;;;;;;;;;;11.80;39.90;;;12.00;43.46;100385.06;5051282;28;19925;-35
2023/12/04 05:10:55;;;;;;;;;;;11.80;39.80;;;12.01;43.29;100381.78;5052415;28;19931;-35
2023/12/04 05:13:23;;;;;;;;;;;11.80;39.80;;;12.02;43.20;100373.56;5051828;28;19931;-35
2023/12/04 05:15:53;;;;;;;;;;;11.80;39.80;;;12.02;43.08;100368.53;5051904;28;19925;-35
2023/12/04 05:18:21;;;;;;;;;;;11.80;39.90;;;12.01;43.17;100365.88;5044387;28;19978;-35
2023/12/04 05:20:49;;;;;;;;;;;11.80;39.80;;;12.03;42.35;100367.81;5051529;28;19925;-35
2023/12/04 05:23:17;;;;;;;;;;;11.80;39.90;;;12.01;43.20;100369.25;5051851;28;19950;-35
2023/12/04 05:25:44;;;;;;;;;;;11.80;39.90;;;12.03;42.71;100360.28;5051805;28;20388;-35
2023/12/04 05:28:17;;;;;;;;;;;11.80;39.80;;;12.02;42.99;100363.50;5051840;28;19924;-35
2023/12/04 05:30:46;;;;;;;;;;;11.80;39.80;;;12.04;43.24;100357.06;5051521;28;19931;-35
2023/12/04 05:33:15;;;;;;;;;;;11.90;39.90;;;12.05;42.62;100363.00;5051372;28;20377;-35
2023/12/04 05:35:43;;;;;;;;;;;11.90;39.80;;;12.07;42.69;100362.47;5051718;28;19951;-35
2023/12/04 05:38:11;;;;;;;;;;;11.80;39.70;;;12.05;43.14;100358.88;5051451;28;20318;-35
2023/12/04 05:40:39;;;;;;;;;;;11.90;39.80;;;12.05;42.65;100358.88;5051825;28;19925;-35
2023/12/04 05:43:07;;;;;;;;;;;11.80;39.70;;;12.04;42.87;100347.03;5053171;28;20418;-35
2023/12/04 05:45:35;;;;;;;;;;;11.80;39.60;;;12.04;43.13;100352.03;5051653;28;20115;-35
2023/12/04 05:48:04;;;;;;;;;;;11.90;39.70;;;12.06;42.43;100352.25;5051521;28;19955;-35
2023/12/04 05:50:33;;;;;;;;;;;11.90;39.70;;;12.05;42.24;100348.81;5051702;28;19924;-35
2023/12/04 05:53:01;;;;;;;;;;;11.90;39.70;;;12.05;42.34;100353.84;5051279;28;19925;-35
2023/12/04 05:55:28;;;;;;;;;;;11.90;39.70;;;12.05;42.76;100347.94;5051554;28;19925;-35
2023/12/04 05:57:56;;;;;;;;;;;11.90;39.70;;;12.07;42.56;100342.38;5051693;28;19931;-35
2023/12/04 06:00:24;;;;;;;;;;;11.90;39.70;;;12.06;42.50;100340.59;5051659;28;19924;-35
2023/12/04 06:02:56;;;;;;;;;;;11.90;39.70;;;12.09;42.50;100345.94;5052822;28;19925;-35
2023/12/04 06:05:24;;;;;;;;;;;11.90;39.70;;;12.09;42.89;100350.06;5056570;28;19936;-35
2023/12/04 06:07:53;;;;;;;;;;;11.80;40.20;;;12.07;42.57;100342.38;5058228;28;19932;-35
2023/12/04 06:10:21;;;;;;;;;;;11.80;39.70;;;12.07;43.21;100342.38;5051232;28;19925;-35
2023/12/04 06:12:49;;;;;;;;;;;11.90;39.70;;;12.08;42.54;100343.25;5058138;28;19964;-35
2023/12/04 06:15:17;;;;;;;;;;;11.90;39.70;;;12.09;42.83;100333.41;5060143;28;19925;-35
2023/12/04 06:17:45;;;;;;;;;;;11.90;39.80;;;12.13;42.37;100341.31;5059808;28;19956;-35
2023/12/04 06:20:13;;;;;;;;;;;11.80;39.70;;;12.08;42.35;100334.09;5059387;28;19988;-35
2023/12/04 06:22:42;;;;;;;;;;;11.80;39.60;;;12.08;42.15;100343.25;5063516;28;19971;-35
2023/12/04 06:25:12;;;;;;;;;;;11.80;39.60;;;12.05;42.04;100343.81;5063314;28;19988;-35
2023/12/04 06:27:41;;;;;;;;;;;11.80;39.60;;;12.06;42.41;100335.56;5063289;28;20300;-35
2023/12/04 06:30:09;;;;;;;;;;;11.90;39.70;;;12.04;42.99;100347.03;5061937;28;19971;-35
2023/12/04 06:32:38;;;;;;;;;;;11.80;39.60;;;12.06;42.51;100337.16;5055264;28;20007;-35
2023/12/04 06:35:07;;;;;;;;;;;11.80;39.60;;;12.04;41.90;100331.97;5055208;28;19932;-35
2023/12/04 06:37:35;;;;;;;;;;;11.80;39.50;;;12.04;42.63;100336.97;5054994;28;19936;-35
2023/12/04 06:40:04;;;;;;;;;;;11.80;39.50;;;12.07;42.40;100339.88;5054568;28;19933;-35
2023/12/04 06:42:34;;;;;;;;;;;11.80;39.50;;;12.05;42.14;100341.28;5055028;28;20009;-35
2023/12/04 06:45:02;;;;;;;;;;;11.80;39.50;;;12.06;41.83;100342.19;5054822;28;20343;-35
2023/12/04 06:47:31;;;;;;;;;;;11.80;39.50;;;12.05;41.91;100343.81;5055408;28;19950;-35
2023/12/04 06:49:59;;;;;;;;;;;11.80;39.50;;;12.05;41.75;100347.94;5054903;28;19968;-35
2023/12/04 06:52:27;;;;;;;;;;;11.80;39.50;;;12.04;42.09;100341.09;5054897;28;19925;-35
2023/12/04 06:54:55;;;;;;;;;;;11.80;39.50;;;12.03;41.98;100345.22;5055138;28;19925;-35
2023/12/04 06:57:23;;;;;;;;;;;11.80;39.50;;;12.04;42.45;100339.50;5054630;28;20393;-35
2023/12/04 06:59:53;;;;;;;;;;;11.80;39.50;;;12.02;41.99;100338.41;5054537;28;20019;-35
2023/12/04 07:02:21;;;;;;;;;;;11.80;39.50;;;12.02;42.87;100335.88;5054296;28;20291;-35
2023/12/04 07:04:49;;;;;;;;;;;11.80;39.40;;;12.04;42.03;100334.47;5054343;28;20027;-35
2023/12/04 07:07:17;;;;;;;;;;;11.80;39.50;;;12.02;41.87;100330.88;5054250;28;20388;-35
2023/12/04 07:09:45;;;;;;;;;;;11.80;39.40;;;12.03;42.57;100324.22;5054477;28;19928;-35
2023/12/04 07:12:13;;;;;;;;;;;11.80;39.40;;;12.04;42.73;100326.94;5054252;28;19994;-35
2023/12/04 07:14:42;;;;;;;;;;;11.80;39.30;;;12.03;42.34;100317.59;5053664;28;20092;-35
2023/12/04 07:17:12;;;;;;;;;;;11.80;39.30;;;12.05;41.74;100322.81;5054543;28;19925;-35
2023/12/04 07:19:41;;;;;;;;;;;11.80;39.30;;;12.04;41.84;100323.53;5054369;28;20357;-34
2023/12/04 07:22:09;;;;;;;;;;;11.80;39.30;;;12.06;41.43;100319.59;5055121;28;20012;-35
2023/12/04 07:24:37;;;;;;;;;;;11.80;39.30;;;12.05;42.02;100313.66;5054303;28;19925;-35
2023/12/04 07:27:06;;;;;;;;;;;11.80;39.20;;;12.06;42.46;100305.44;5054493;28;20289;-35
2023/12/04 07:29:34;;;;;;;;;;;11.80;39.20;;;12.04;41.84;100311.88;5054289;28;19929;-35
2023/12/04 07:32:02;;;;;;;;;;;11.80;39.20;;;12.03;41.87;100310.06;5054104;28;19925;-35
2023/12/04 07:34:31;;;;;;;;;;;11.80;39.10;;;12.04;42.19;100301.81;5054667;28;20388;-35
2023/12/04 07:36:59;;;;;;;;;;;11.80;39.00;;;12.02;41.20;100307.38;5055571;28;20430;-35
2023/12/04 07:39:27;;;;;;;;;;;11.80;39.00;;;12.03;42.54;100307.56;5046989;28;19932;-35
2023/12/04 07:41:54;;;;;;;;;;;11.80;39.00;;;12.06;41.28;100295.38;5054956;28;19925;-35
2023/12/04 07:44:38;;;;;;;;;;;11.80;39.00;;;12.08;41.29;100288.91;5048495;28;20264;-35
2023/12/04 07:47:06;;;;;;;;;;;11.80;39.00;;;12.04;41.78;100281.75;5054853;28;19979;-35
2023/12/04 07:49:36;;;;;;;;;;;11.80;39.00;;;12.04;42.40;100296.81;5055209;28;19928;-35
2023/12/04 07:52:04;;;;;;;;;;;11.80;39.00;;;12.03;42.20;100300.03;5054468;28;19925;-35
2023/12/04 07:54:33;;;;;;;;;;;11.80;39.00;;;12.03;42.37;100289.97;5054519;28;20335;-35
2023/12/04 07:57:01;;;;;;;;;;;11.80;39.00;;;12.06;42.31;100285.34;5053370;28;19925;-36
2023/12/04 07:59:28;;;;;;;;;;;11.80;39.10;;;12.04;41.76;100284.25;5053772;28;20390;-35
2023/12/04 08:01:56;;;;;;;;;;;11.80;39.70;;;12.04;41.80;100281.75;5053515;28;20273;-35
2023/12/04 08:04:24;;;;;;;;;;;11.80;39.00;;;12.01;41.82;100281.34;5052779;28;19925;-35
2023/12/04 08:06:54;;;;;;;;;;;11.80;39.00;;;12.02;41.62;100283.16;5053551;28;20315;-36
2023/12/04 08:09:21;;;;;;;;;;;11.80;39.00;;;12.02;41.99;100288.19;5053358;28;19933;-35
2023/12/04 08:11:49;;;;;;;;;;;11.80;39.00;;;12.02;42.34;100278.13;5052932;28;20385;-35
2023/12/04 08:14:17;;;;;;;;;;;11.80;39.00;;;12.00;42.09;100279.59;5053019;28;19944;-35
2023/12/04 08:16:45;;;;;;;;;;;11.80;39.10;;;12.03;41.59;100277.44;5053603;28;19925;-34
2023/12/04 08:19:13;;;;;;;;;;;11.80;39.00;;;12.01;41.89;100276.34;5053047;28;19935;-35
2023/12/04 08:21:41;;;;;;;;;;;11.80;39.10;;;12.00;41.41;100264.53;5053976;28;19932;-35
2023/12/04 08:24:10;;;;;;;;;;;11.80;39.00;;;12.03;41.68;100269.91;5052616;28;19939;-35
2023/12/04 08:26:38;;;;;;;;;;;11.80;39.00;;;12.02;41.18;100263.06;5053254;28;20016;-35
2023/12/04 08:29:06;;;;;;;;;;;11.80;39.00;;;12.03;41.97;100267.38;5052880;28;19931;-35
2023/12/04 08:31:34;;;;;;;;;;;11.80;39.10;;;12.04;42.30;100263.25;5052564;28;20419;-35
2023/12/04 08:34:02;;;;;;;;;;;11.80;39.00;;;12.04;42.03;100259.13;5052540;28;19924;-35
2023/12/04 08:36:30;;;;;;;;;;;11.80;39.00;;;12.05;41.86;100250.91;5044719;28;19971;-35
2023/12/04 08:39:14;;;;;;;;;;;11.80;39.10;;;12.05;42.54;100252.50;5052853;28;20342;-35
2023/12/04 08:41:45;;;;;;;;;;;11.80;39.10;;;11.98;41.75;100240.84;5053182;28;19968;-35
2023/12/04 08:44:28;;;;;;;;;;;11.90;39.10;;;12.05;42.62;100243.34;5052247;28;19995;-35
2023/12/04 08:46:57;;;;;;;;;;;11.90;39.10;;;12.05;41.84;100233.31;5056137;28;19931;-35
2023/12/04 08:49:25;;;;;;;;;;;11.80;39.10;;;12.07;42.36;100226.88;5054298;28;19974;-35
2023/12/04 08:52:06;;;;;;;;;;;11.80;39.10;;;12.04;42.40;100226.50;5052294;28;19925;-35
2023/12/04 08:54:35;;;;;;;;;;;11.80;39.10;;;12.07;41.94;100226.88;5052599;28;20392;-35
2023/12/04 08:57:04;;;;;;;;;;;11.80;39.10;;;12.06;42.33;100225.06;5052731;28;20343;-35
2023/12/04 08:59:33;;;;;;;;;;;11.80;39.10;;;12.06;42.60;100215.03;5044638;28;19925;-35
2023/12/04 09:02:03;;;;;;;;;;;11.90;39.10;;;12.05;41.96;100223.28;5052088;28;19925;-35
2023/12/04 09:04:31;;;;;;;;;;;11.80;39.10;;;12.05;42.66;100225.78;5044432;28;19931;-35
2023/12/04 09:07:00;;;;;;;;;;;11.80;39.10;;;12.06;42.74;100219.16;5052452;28;20443;-35
2023/12/04 09:09:32;;;;;;;;;;;11.90;39.20;;;11.98;42.33;100199.78;5052347;28;20295;-35
2023/12/04 09:12:01;;;;;;;;;;;11.90;39.20;;;12.07;42.01;100216.81;5051997;28;19925;-35
2023/12/04 09:14:29;;;;;;;;;;;11.90;39.20;;;12.09;42.03;100205.31;5051636;28;19967;-35
2023/12/04 09:16:57;;;;;;;;;;;11.80;39.10;;;12.08;42.43;100211.06;5052057;28;19931;-35
2023/12/04 09:19:25;;;;;;;;;;;11.90;39.20;;;12.07;42.66;100211.81;5051979;28;19932;-35
2023/12/04 09:21:54;;;;;;;;;;;11.90;39.20;;;12.07;41.70;100206.78;5053848;28;20339;-35
2023/12/04 09:24:35;;;;;;;;;;;11.90;39.20;;;12.07;42.11;100216.81;5044518;28;19947;-35
2023/12/04 09:27:06;;;;;;;;;;;11.90;39.20;;;12.07;42.14;100216.81;5052203;28;20015;-35
2023/12/04 09:29:34;;;;;;;;;;;11.90;39.20;;;12.09;42.72;100215.38;5044302;28;19929;-35
2023/12/04 09:32:02;;;;;;;;;;;11.90;39.20;;;12.08;41.84;100218.59;5051854;28;19925;-34
2023/12/04 09:34:30;;;;;;;;;;;11.80;39.20;;;12.06;42.45;100204.97;5052213;28;19924;-35
2023/12/04 09:36:58;;;;;;;;;;;11.90;39.20;;;12.05;42.33;100203.19;5054933;28;19963;-35
2023/12/04 09:39:37;;;;;;;;;;;11.90;39.20;;;12.06;42.13;100199.97;5049524;28;19925;-35
2023/12/04 09:42:07;;;;;;;;;;;11.90;39.20;;;12.06;42.22;100199.97;5058381;28;19967;-35
2023/12/04 09:44:36;;;;;;;;;;;11.80;39.20;;;12.09;41.65;100200.31;5047783;28;19932;-35
2023/12/04 09:47:04;;;;;;;;;;;11.80;39.20;;;12.07;42.06;100206.78;5052159;28;20023;-35
2023/12/04 09:49:32;;;;;;;;;;;11.80;39.10;;;12.08;42.16;100193.47;5051648;28;20402;-35
2023/12/04 09:52:00;;;;;;;;;;;11.80;39.20;;;12.07;42.22;100196.75;5051885;28;19947;-35
2023/12/04 09:54:28;;;;;;;;;;;11.90;39.20;;;12.09;42.35;100195.28;5051966;28;19935;-35
2023/12/04 09:56:56;;;;;;;;;;;11.80;39.20;;;12.06;42.45;100194.94;5055783;28;19955;-35
2023/12/04 09:59:26;;;;;;;;;;;11.90;39.30;;;12.07;41.54;100186.69;5055687;28;20016;-35
2023/12/04 10:01:54;;;;;;;;;;;11.80;39.20;;;12.05;42.67;100183.09;5055681;28;19924;-35
2023/12/04 10:04:22;;;;;;;;;;;11.90;39.30;;;12.06;41.96;100169.84;5055137;28;19935;-35
2023/12/04 10:06:50;;;;;;;;;;;11.90;39.30;;;12.07;42.20;100179.16;5055786;28;20027;-35
2023/12/04 10:09:18;;;;;;;;;;;11.80;39.10;;;12.04;42.47;100176.28;5055521;28;19924;-35
2023/12/04 10:11:46;;;;;;;;;;;11.80;39.10;;;12.07;41.62;100176.66;5055277;28;19925;-35
2023/12/04 10:14:15;;;;;;;;;;;11.90;39.20;;;12.08;42.04;100172.50;5054960;28;20395;-35
2023/12/04 10:16:45;;;;;;;;;;;11.90;39.30;;;12.06;42.56;100172.34;5055016;28;19947;-35
2023/12/04 10:19:20;;;;;;;;;;;11.80;39.70;;;12.05;42.23;100163.00;5055127;28;19931;-35
2023/12/04 10:21:48;;;;;;;;;;;11.80;39.10;;;12.06;42.25;100164.81;5057614;28;19947;-35
2023/12/04 10:24:31;;;;;;;;;;;11.90;39.20;;;12.08;42.41;100148.28;5054851;28;20027;-35
2023/12/04 10:26:59;;;;;;;;;;;11.80;39.10;;;12.08;42.11;100140.75;5054931;28;20415;-34
2023/12/04 10:29:28;;;;;;;;;;;11.80;39.10;;;12.08;41.95;100132.31;5055187;28;19935;-35
2023/12/04 10:32:00;;;;;;;;;;;11.80;39.10;;;12.05;41.75;100127.84;5055055;28;19931;-35
2023/12/04 10:34:32;;;;;;;;;;;11.80;39.10;;;12.07;42.41;100126.44;5054827;28;19924;-35
2023/12/04 10:37:00;;;;;;;;;;;11.90;39.20;;;12.08;42.19;100118.16;5055287;28;20189;-35
2023/12/04 10:39:28;;;;;;;;;;;11.80;39.10;;;12.08;41.67;100110.63;5054627;28;19925;-36
2023/12/04 10:42:01;;;;;;;;;;;11.90;39.20;;;12.08;41.91;100113.13;5055118;28;19929;-35
2023/12/04 10:44:29;;;;;;;;;;;11.90;39.20;;;12.08;42.00;100100.56;5054555;28;19931;-36
2023/12/04 10:46:59;;;;;;;;;;;11.90;39.20;;;12.08;42.00;100095.53;5054786;28;20395;-36
2023/12/04 10:49:27;;;;;;;;;;;11.90;39.10;;;12.09;42.50;100094.84;5054846;28;19925;-36
2023/12/04 10:51:56;;;;;;;;;;;11.90;39.10;;;12.09;42.29;100087.28;5054580;28;19925;-36
2023/12/04 10:54:24;;;;;;;;;;;11.90;39.20;;;12.09;42.10;100084.78;5054088;28;19925;-36
2023/12/04 10:56:53;;;;;;;;;;;11.90;39.10;;;12.08;42.38;100072.03;5054592;28;19925;-36
2023/12/04 10:59:24;;;;;;;;;;;11.90;39.10;;;12.08;42.46;100067.94;5054495;28;20046;-36
2023/12/04 11:01:52;;;;;;;;;;;11.90;39.10;;;12.07;42.50;100066.16;5054512;28;19929;-36
2023/12/04 11:04:21;;;;;;;;;;;11.90;39.10;;;12.10;42.03;100065.59;5055694;28;19972;-36
2023/12/04 11:06:51;;;;;;;;;;;11.90;39.10;;;12.09;41.91;100064.69;5055228;28;19932;-36
2023/12/04 11:09:20;;;;;;;;;;;11.90;39.10;;;12.07;42.41;100066.16;5055132;28;19972;-36
2023/12/04 11:11:51;;;;;;;;;;;11.90;39.10;;;12.08;42.38;100062.91;5055237;28;19947;-35
2023/12/04 11:14:22;;;;;;;;;;;11.90;39.10;;;12.06;41.59;100059.34;5054208;28;19924;-36
2023/12/04 11:16:54;;;;;;;;;;;11.90;39.10;;;12.04;42.29;100050.72;5054357;28;19999;-36